sensor_id;sensor_type;location;lat;lon;timestamp;P1;durP1;ratioP1;P2;durP2;ratioP2
20012;SDS011;10167;42.852;23.042;2022-12-07T00:02:08;1.02;;;1.02;;
20012;SDS011;10167;42.852;23.042;2022-12-07T00:04:37;4.40;;;3.25;;
20012;SDS011;10167;42.852;23.042;2022-12-07T00:07:06;3.45;;;2.70;;
20012;SDS011;10167;42.852;23.042;2022-12-07T00:09:35;1.45;;;1.35;;
20012;SDS011;10167;42.852;23.042;2022-12-07T00:12:07;6.38;;;2.38;;
20012;SDS011;10167;42.852;23.042;2022-12-07T00:14:36;6.10;;;1.98;;
20012;SDS011;10167;42.852;23.042;2022-12-07T00:17:06;3.92;;;1.58;;
20012;SDS011;10167;42.852;23.042;2022-12-07T00:19:36;1.90;;;1.80;;
20012;SDS011;10167;42.852;23.042;2022-12-07T00:22:05;1.33;;;1.25;;
20012;SDS011;10167;42.852;23.042;2022-12-07T00:24:35;2.05;;;1.55;;
20012;SDS011;10167;42.852;23.042;2022-12-07T00:27:04;13.52;;;5.68;;
20012;SDS011;10167;42.852;23.042;2022-12-07T00:32:26;7.25;;;3.47;;
20012;SDS011;10167;42.852;23.042;2022-12-07T00:34:55;8.57;;;2.13;;
20012;SDS011;10167;42.852;23.042;2022-12-07T00:37:25;8.77;;;2.67;;
20012;SDS011;10167;42.852;23.042;2022-12-07T00:39:54;1.63;;;1.52;;
20012;SDS011;10167;42.852;23.042;2022-12-07T00:42:24;3.10;;;2.58;;
20012;SDS011;10167;42.852;23.042;2022-12-07T00:44:54;3.17;;;1.88;;
20012;SDS011;10167;42.852;23.042;2022-12-07T00:47:23;8.18;;;2.92;;
20012;SDS011;10167;42.852;23.042;2022-12-07T00:49:55;10.15;;;2.45;;
20012;SDS011;10167;42.852;23.042;2022-12-07T00:52:24;2.60;;;2.40;;
20012;SDS011;10167;42.852;23.042;2022-12-07T00:54:54;3.38;;;3.08;;
20012;SDS011;10167;42.852;23.042;2022-12-07T00:57:23;5.15;;;2.70;;
20012;SDS011;10167;42.852;23.042;2022-12-07T00:59:52;7.82;;;1.65;;
20012;SDS011;10167;42.852;23.042;2022-12-07T01:02:25;1.92;;;1.83;;
20012;SDS011;10167;42.852;23.042;2022-12-07T01:04:56;3.15;;;2.03;;
20012;SDS011;10167;42.852;23.042;2022-12-07T01:07:25;2.53;;;1.90;;
20012;SDS011;10167;42.852;23.042;2022-12-07T01:09:55;3.58;;;3.25;;
20012;SDS011;10167;42.852;23.042;2022-12-07T01:12:25;8.57;;;1.88;;
20012;SDS011;10167;42.852;23.042;2022-12-07T01:14:54;4.43;;;2.95;;
20012;SDS011;10167;42.852;23.042;2022-12-07T01:17:24;12.90;;;4.50;;
20012;SDS011;10167;42.852;23.042;2022-12-07T01:19:53;3.80;;;1.75;;
20012;SDS011;10167;42.852;23.042;2022-12-07T01:22:24;4.00;;;3.33;;
20012;SDS011;10167;42.852;23.042;2022-12-07T01:24:53;1.27;;;1.13;;
20012;SDS011;10167;42.852;23.042;2022-12-07T01:27:22;2.92;;;2.38;;
20012;SDS011;10167;42.852;23.042;2022-12-07T01:29:52;3.33;;;3.00;;
20012;SDS011;10167;42.852;23.042;2022-12-07T01:32:21;2.20;;;2.00;;
20012;SDS011;10167;42.852;23.042;2022-12-07T01:34:50;4.10;;;2.58;;
20012;SDS011;10167;42.852;23.042;2022-12-07T01:37:19;1.67;;;1.58;;
20012;SDS011;10167;42.852;23.042;2022-12-07T01:39:50;4.00;;;3.30;;
20012;SDS011;10167;42.852;23.042;2022-12-07T01:42:19;1.98;;;1.58;;
20012;SDS011;10167;42.852;23.042;2022-12-07T01:47:51;2.47;;;2.30;;
20012;SDS011;10167;42.852;23.042;2022-12-07T01:50:22;2.22;;;2.03;;
20012;SDS011;10167;42.852;23.042;2022-12-07T01:52:55;1.90;;;1.75;;
20012;SDS011;10167;42.852;23.042;2022-12-07T01:55:29;4.80;;;4.00;;
20012;SDS011;10167;42.852;23.042;2022-12-07T01:57:58;3.13;;;2.83;;
20012;SDS011;10167;42.852;23.042;2022-12-07T02:00:28;11.73;;;5.63;;
20012;SDS011;10167;42.852;23.042;2022-12-07T02:02:59;3.85;;;2.90;;
20012;SDS011;10167;42.852;23.042;2022-12-07T02:05:33;8.57;;;3.63;;
20012;SDS011;10167;42.852;23.042;2022-12-07T02:08:04;3.30;;;3.00;;
20012;SDS011;10167;42.852;23.042;2022-12-07T02:10:35;7.82;;;4.07;;
20012;SDS011;10167;42.852;23.042;2022-12-07T02:13:05;2.47;;;2.03;;
20012;SDS011;10167;42.852;23.042;2022-12-07T02:15:40;5.23;;;3.40;;
20012;SDS011;10167;42.852;23.042;2022-12-07T02:18:20;2.10;;;1.45;;
20012;SDS011;10167;42.852;23.042;2022-12-07T02:20:57;3.67;;;2.47;;
20012;SDS011;10167;42.852;23.042;2022-12-07T02:23:41;5.97;;;2.53;;
20012;SDS011;10167;42.852;23.042;2022-12-07T02:26:50;2.42;;;2.22;;
20012;SDS011;10167;42.852;23.042;2022-12-07T02:29:45;3.30;;;3.00;;
20012;SDS011;10167;42.852;23.042;2022-12-07T02:32:20;5.13;;;2.40;;
20012;SDS011;10167;42.852;23.042;2022-12-07T02:34:55;2.22;;;1.88;;
20012;SDS011;10167;42.852;23.042;2022-12-07T02:37:29;2.53;;;1.83;;
20012;SDS011;10167;42.852;23.042;2022-12-07T02:40:05;4.22;;;1.63;;
20012;SDS011;10167;42.852;23.042;2022-12-07T02:42:44;2.38;;;2.05;;
20012;SDS011;10167;42.852;23.042;2022-12-07T02:45:20;1.80;;;1.50;;
20012;SDS011;10167;42.852;23.042;2022-12-07T02:47:51;5.15;;;3.08;;
20012;SDS011;10167;42.852;23.042;2022-12-07T02:50:29;7.07;;;2.17;;
20012;SDS011;10167;42.852;23.042;2022-12-07T02:52:58;3.23;;;1.67;;
20012;SDS011;10167;42.852;23.042;2022-12-07T02:55:28;2.30;;;1.98;;
20012;SDS011;10167;42.852;23.042;2022-12-07T02:58:17;12.25;;;2.90;;
20012;SDS011;10167;42.852;23.042;2022-12-07T03:01:03;3.05;;;2.80;;
20012;SDS011;10167;42.852;23.042;2022-12-07T03:03:38;2.33;;;2.13;;
20012;SDS011;10167;42.852;23.042;2022-12-07T03:06:17;4.63;;;2.45;;
20012;SDS011;10167;42.852;23.042;2022-12-07T03:08:54;2.53;;;2.03;;
20012;SDS011;10167;42.852;23.042;2022-12-07T03:11:33;2.78;;;2.55;;
20012;SDS011;10167;42.852;23.042;2022-12-07T03:14:13;3.35;;;1.67;;
20012;SDS011;10167;42.852;23.042;2022-12-07T03:16:49;3.67;;;3.38;;
20012;SDS011;10167;42.852;23.042;2022-12-07T03:19:24;3.55;;;2.50;;
20012;SDS011;10167;42.852;23.042;2022-12-07T03:22:00;2.63;;;2.10;;
20012;SDS011;10167;42.852;23.042;2022-12-07T03:24:34;2.83;;;2.40;;
20012;SDS011;10167;42.852;23.042;2022-12-07T03:27:08;4.15;;;1.85;;
20012;SDS011;10167;42.852;23.042;2022-12-07T03:29:43;2.08;;;1.98;;
20012;SDS011;10167;42.852;23.042;2022-12-07T03:32:19;3.35;;;3.05;;
20012;SDS011;10167;42.852;23.042;2022-12-07T03:34:55;10.10;;;5.03;;
20012;SDS011;10167;42.852;23.042;2022-12-07T03:37:31;8.00;;;5.65;;
20012;SDS011;10167;42.852;23.042;2022-12-07T03:42:35;2.63;;;2.42;;
20012;SDS011;10167;42.852;23.042;2022-12-07T03:45:05;9.82;;;6.60;;
20012;SDS011;10167;42.852;23.042;2022-12-07T03:47:40;3.30;;;2.10;;
20012;SDS011;10167;42.852;23.042;2022-12-07T03:50:15;4.18;;;3.53;;
20012;SDS011;10167;42.852;23.042;2022-12-07T03:52:54;1.27;;;1.23;;
20012;SDS011;10167;42.852;23.042;2022-12-07T03:55:31;2.40;;;1.70;;
20012;SDS011;10167;42.852;23.042;2022-12-07T03:58:05;3.65;;;2.63;;
20012;SDS011;10167;42.852;23.042;2022-12-07T04:00:38;20.05;;;4.13;;
20012;SDS011;10167;42.852;23.042;2022-12-07T04:03:10;2.92;;;2.67;;
20012;SDS011;10167;42.852;23.042;2022-12-07T04:05:40;2.95;;;2.65;;
20012;SDS011;10167;42.852;23.042;2022-12-07T04:08:11;13.35;;;3.38;;
20012;SDS011;10167;42.852;23.042;2022-12-07T04:10:40;6.70;;;4.40;;
20012;SDS011;10167;42.852;23.042;2022-12-07T04:13:10;1.98;;;1.83;;
20012;SDS011;10167;42.852;23.042;2022-12-07T04:15:39;2.70;;;2.22;;
20012;SDS011;10167;42.852;23.042;2022-12-07T04:18:10;2.70;;;2.50;;
20012;SDS011;10167;42.852;23.042;2022-12-07T04:20:39;1.67;;;1.58;;
20012;SDS011;10167;42.852;23.042;2022-12-07T04:23:08;2.83;;;2.65;;
20012;SDS011;10167;42.852;23.042;2022-12-07T04:25:37;3.85;;;3.08;;
20012;SDS011;10167;42.852;23.042;2022-12-07T04:28:09;4.63;;;3.80;;
20012;SDS011;10167;42.852;23.042;2022-12-07T04:33:09;3.22;;;2.90;;
20012;SDS011;10167;42.852;23.042;2022-12-07T04:35:39;2.63;;;2.22;;
20012;SDS011;10167;42.852;23.042;2022-12-07T04:38:10;2.25;;;1.40;;
20012;SDS011;10167;42.852;23.042;2022-12-07T04:40:40;11.93;;;4.60;;
20012;SDS011;10167;42.852;23.042;2022-12-07T04:43:09;5.10;;;2.97;;
20012;SDS011;10167;42.852;23.042;2022-12-07T04:45:38;3.75;;;3.33;;
20012;SDS011;10167;42.852;23.042;2022-12-07T04:48:07;3.35;;;3.05;;
20012;SDS011;10167;42.852;23.042;2022-12-07T04:50:38;2.53;;;2.35;;
20012;SDS011;10167;42.852;23.042;2022-12-07T04:53:12;3.38;;;1.67;;
20012;SDS011;10167;42.852;23.042;2022-12-07T04:55:42;3.30;;;2.38;;
20012;SDS011;10167;42.852;23.042;2022-12-07T04:58:12;4.00;;;3.03;;
20012;SDS011;10167;42.852;23.042;2022-12-07T05:00:42;3.45;;;1.58;;
20012;SDS011;10167;42.852;23.042;2022-12-07T05:03:11;2.65;;;2.45;;
20012;SDS011;10167;42.852;23.042;2022-12-07T05:05:42;5.15;;;2.70;;
20012;SDS011;10167;42.852;23.042;2022-12-07T05:08:11;5.05;;;2.97;;
20012;SDS011;10167;42.852;23.042;2022-12-07T05:10:42;3.72;;;2.92;;
20012;SDS011;10167;42.852;23.042;2022-12-07T05:13:11;6.32;;;4.78;;
20012;SDS011;10167;42.852;23.042;2022-12-07T05:15:40;3.15;;;2.65;;
20012;SDS011;10167;42.852;23.042;2022-12-07T05:18:11;2.63;;;2.17;;
20012;SDS011;10167;42.852;23.042;2022-12-07T05:20:43;5.32;;;3.08;;
20012;SDS011;10167;42.852;23.042;2022-12-07T05:23:16;5.57;;;2.45;;
20012;SDS011;10167;42.852;23.042;2022-12-07T05:25:46;1.52;;;1.17;;
20012;SDS011;10167;42.852;23.042;2022-12-07T05:28:16;4.47;;;2.83;;
20012;SDS011;10167;42.852;23.042;2022-12-07T05:30:45;3.13;;;2.72;;
20012;SDS011;10167;42.852;23.042;2022-12-07T05:33:14;4.60;;;2.78;;
20012;SDS011;10167;42.852;23.042;2022-12-07T05:35:45;0.77;;;0.77;;
20012;SDS011;10167;42.852;23.042;2022-12-07T05:38:14;2.15;;;1.92;;
20012;SDS011;10167;42.852;23.042;2022-12-07T05:40:44;2.90;;;2.28;;
20012;SDS011;10167;42.852;23.042;2022-12-07T05:43:13;2.85;;;2.40;;
20012;SDS011;10167;42.852;23.042;2022-12-07T05:45:43;2.35;;;2.20;;
20012;SDS011;10167;42.852;23.042;2022-12-07T05:48:13;5.03;;;3.05;;
20012;SDS011;10167;42.852;23.042;2022-12-07T05:50:48;4.18;;;2.42;;
20012;SDS011;10167;42.852;23.042;2022-12-07T05:53:18;2.05;;;1.95;;
20012;SDS011;10167;42.852;23.042;2022-12-07T05:55:49;3.05;;;2.25;;
20012;SDS011;10167;42.852;23.042;2022-12-07T05:58:20;1.85;;;1.67;;
20012;SDS011;10167;42.852;23.042;2022-12-07T06:01:06;4.15;;;3.65;;
20012;SDS011;10167;42.852;23.042;2022-12-07T06:03:35;2.97;;;2.78;;
20012;SDS011;10167;42.852;23.042;2022-12-07T06:06:07;5.60;;;3.92;;
20012;SDS011;10167;42.852;23.042;2022-12-07T06:08:36;5.60;;;3.53;;
20012;SDS011;10167;42.852;23.042;2022-12-07T06:11:05;5.90;;;3.28;;
20012;SDS011;10167;42.852;23.042;2022-12-07T06:13:52;3.20;;;1.95;;
20012;SDS011;10167;42.852;23.042;2022-12-07T06:16:21;3.20;;;2.35;;
20012;SDS011;10167;42.852;23.042;2022-12-07T06:18:51;4.72;;;2.80;;
20012;SDS011;10167;42.852;23.042;2022-12-07T06:24:05;1.63;;;1.52;;
20012;SDS011;10167;42.852;23.042;2022-12-07T06:26:34;4.25;;;1.95;;
20012;SDS011;10167;42.852;23.042;2022-12-07T06:29:03;5.45;;;3.78;;
20012;SDS011;10167;42.852;23.042;2022-12-07T06:31:33;2.45;;;1.80;;
20012;SDS011;10167;42.852;23.042;2022-12-07T06:34:02;1.15;;;1.15;;
20012;SDS011;10167;42.852;23.042;2022-12-07T06:36:32;4.55;;;2.60;;
20012;SDS011;10167;42.852;23.042;2022-12-07T06:39:05;2.88;;;2.60;;
20012;SDS011;10167;42.852;23.042;2022-12-07T06:41:36;13.73;;;2.90;;
20012;SDS011;10167;42.852;23.042;2022-12-07T06:44:06;6.50;;;4.15;;
20012;SDS011;10167;42.852;23.042;2022-12-07T06:46:36;3.15;;;2.50;;
20012;SDS011;10167;42.852;23.042;2022-12-07T06:49:06;4.47;;;1.92;;
20012;SDS011;10167;42.852;23.042;2022-12-07T06:51:35;2.30;;;2.10;;
20012;SDS011;10167;42.852;23.042;2022-12-07T06:54:10;2.03;;;1.92;;
20012;SDS011;10167;42.852;23.042;2022-12-07T06:56:41;3.00;;;2.80;;
20012;SDS011;10167;42.852;23.042;2022-12-07T06:59:11;5.68;;;4.30;;
20012;SDS011;10167;42.852;23.042;2022-12-07T07:01:40;2.95;;;1.70;;
20012;SDS011;10167;42.852;23.042;2022-12-07T07:04:09;3.00;;;2.63;;
20012;SDS011;10167;42.852;23.042;2022-12-07T07:06:38;2.90;;;2.58;;
20012;SDS011;10167;42.852;23.042;2022-12-07T07:09:10;2.50;;;1.75;;
20012;SDS011;10167;42.852;23.042;2022-12-07T07:11:40;3.65;;;2.90;;
20012;SDS011;10167;42.852;23.042;2022-12-07T07:14:09;8.00;;;4.20;;
20012;SDS011;10167;42.852;23.042;2022-12-07T07:16:38;8.50;;;4.75;;
20012;SDS011;10167;42.852;23.042;2022-12-07T07:19:08;6.00;;;4.57;;
20012;SDS011;10167;42.852;23.042;2022-12-07T07:21:37;5.57;;;3.90;;
20012;SDS011;10167;42.852;23.042;2022-12-07T07:24:06;4.07;;;3.70;;
20012;SDS011;10167;42.852;23.042;2022-12-07T07:26:37;2.42;;;2.00;;
20012;SDS011;10167;42.852;23.042;2022-12-07T07:29:06;2.50;;;2.25;;
20012;SDS011;10167;42.852;23.042;2022-12-07T07:31:36;2.17;;;1.98;;
20012;SDS011;10167;42.852;23.042;2022-12-07T07:34:05;5.43;;;2.53;;
20012;SDS011;10167;42.852;23.042;2022-12-07T07:36:34;3.78;;;1.73;;
20012;SDS011;10167;42.852;23.042;2022-12-07T07:39:05;1.95;;;1.77;;
20012;SDS011;10167;42.852;23.042;2022-12-07T07:41:34;2.90;;;2.70;;
20012;SDS011;10167;42.852;23.042;2022-12-07T07:44:05;2.97;;;1.83;;
20012;SDS011;10167;42.852;23.042;2022-12-07T07:46:34;2.28;;;2.13;;
20012;SDS011;10167;42.852;23.042;2022-12-07T07:49:03;3.15;;;1.85;;
20012;SDS011;10167;42.852;23.042;2022-12-07T07:51:33;5.97;;;3.75;;
20012;SDS011;10167;42.852;23.042;2022-12-07T07:54:02;2.85;;;2.55;;
20012;SDS011;10167;42.852;23.042;2022-12-07T07:56:32;9.73;;;3.92;;
20012;SDS011;10167;42.852;23.042;2022-12-07T07:59:02;1.25;;;1.25;;
20012;SDS011;10167;42.852;23.042;2022-12-07T08:01:33;5.80;;;2.80;;
20012;SDS011;10167;42.852;23.042;2022-12-07T08:04:04;6.82;;;2.67;;
20012;SDS011;10167;42.852;23.042;2022-12-07T08:06:34;0.82;;;0.82;;
20012;SDS011;10167;42.852;23.042;2022-12-07T08:09:03;4.60;;;2.05;;
20012;SDS011;10167;42.852;23.042;2022-12-07T08:11:34;1.55;;;1.45;;
20012;SDS011;10167;42.852;23.042;2022-12-07T08:14:03;3.03;;;1.85;;
20012;SDS011;10167;42.852;23.042;2022-12-07T08:16:34;2.97;;;1.88;;
20012;SDS011;10167;42.852;23.042;2022-12-07T08:19:04;3.53;;;1.65;;
20012;SDS011;10167;42.852;23.042;2022-12-07T08:21:33;2.58;;;2.20;;
20012;SDS011;10167;42.852;23.042;2022-12-07T08:24:02;1.55;;;1.45;;
20012;SDS011;10167;42.852;23.042;2022-12-07T08:26:31;2.53;;;2.33;;
20012;SDS011;10167;42.852;23.042;2022-12-07T08:29:01;3.13;;;2.47;;
20012;SDS011;10167;42.852;23.042;2022-12-07T08:31:30;2.60;;;1.27;;
20012;SDS011;10167;42.852;23.042;2022-12-07T08:34:00;2.75;;;1.20;;
20012;SDS011;10167;42.852;23.042;2022-12-07T08:36:30;0.80;;;0.80;;
20012;SDS011;10167;42.852;23.042;2022-12-07T08:39:00;1.95;;;1.70;;
20012;SDS011;10167;42.852;23.042;2022-12-07T08:41:49;5.00;;;2.55;;
20012;SDS011;10167;42.852;23.042;2022-12-07T08:44:18;2.30;;;2.10;;
20012;SDS011;10167;42.852;23.042;2022-12-07T08:46:48;3.35;;;1.58;;
20012;SDS011;10167;42.852;23.042;2022-12-07T08:49:22;2.38;;;2.25;;
20012;SDS011;10167;42.852;23.042;2022-12-07T08:51:56;1.25;;;1.20;;
20012;SDS011;10167;42.852;23.042;2022-12-07T08:54:25;3.30;;;2.42;;
20012;SDS011;10167;42.852;23.042;2022-12-07T08:56:57;1.80;;;1.70;;
20012;SDS011;10167;42.852;23.042;2022-12-07T08:59:26;3.58;;;2.00;;
20012;SDS011;10167;42.852;23.042;2022-12-07T09:01:57;0.90;;;0.90;;
20012;SDS011;10167;42.852;23.042;2022-12-07T09:04:28;6.13;;;3.05;;
20012;SDS011;10167;42.852;23.042;2022-12-07T09:06:58;4.80;;;2.47;;
20012;SDS011;10167;42.852;23.042;2022-12-07T09:09:27;2.67;;;2.10;;
20012;SDS011;10167;42.852;23.042;2022-12-07T09:11:57;3.10;;;2.22;;
20012;SDS011;10167;42.852;23.042;2022-12-07T09:14:26;3.00;;;2.58;;
20012;SDS011;10167;42.852;23.042;2022-12-07T09:17:04;3.50;;;2.70;;
20012;SDS011;10167;42.852;23.042;2022-12-07T09:19:36;13.18;;;6.18;;
20012;SDS011;10167;42.852;23.042;2022-12-07T09:22:06;5.38;;;4.40;;
20012;SDS011;10167;42.852;23.042;2022-12-07T09:24:35;3.50;;;3.17;;
20012;SDS011;10167;42.852;23.042;2022-12-07T09:27:04;3.22;;;2.28;;
20012;SDS011;10167;42.852;23.042;2022-12-07T09:29:33;5.57;;;3.08;;
20012;SDS011;10167;42.852;23.042;2022-12-07T09:32:04;3.20;;;2.83;;
20012;SDS011;10167;42.852;23.042;2022-12-07T09:34:39;3.28;;;2.70;;
20012;SDS011;10167;42.852;23.042;2022-12-07T09:37:08;2.60;;;1.95;;
20012;SDS011;10167;42.852;23.042;2022-12-07T09:39:40;1.45;;;1.35;;
20012;SDS011;10167;42.852;23.042;2022-12-07T09:42:23;8.00;;;2.15;;
20012;SDS011;10167;42.852;23.042;2022-12-07T09:44:58;3.83;;;2.75;;
20012;SDS011;10167;42.852;23.042;2022-12-07T09:47:30;2.13;;;1.95;;
20012;SDS011;10167;42.852;23.042;2022-12-07T09:50:05;4.13;;;2.83;;
20012;SDS011;10167;42.852;23.042;2022-12-07T09:52:40;2.65;;;2.45;;
20012;SDS011;10167;42.852;23.042;2022-12-07T09:55:15;13.27;;;3.35;;
20012;SDS011;10167;42.852;23.042;2022-12-07T09:57:48;6.72;;;2.78;;
20012;SDS011;10167;42.852;23.042;2022-12-07T10:00:19;11.38;;;2.65;;
20012;SDS011;10167;42.852;23.042;2022-12-07T10:02:52;7.88;;;4.57;;
20012;SDS011;10167;42.852;23.042;2022-12-07T10:05:27;2.22;;;2.03;;
20012;SDS011;10167;42.852;23.042;2022-12-07T10:07:59;35.67;;;3.75;;
20012;SDS011;10167;42.852;23.042;2022-12-07T10:10:29;5.72;;;2.90;;
20012;SDS011;10167;42.852;23.042;2022-12-07T10:13:04;15.57;;;7.20;;
20012;SDS011;10167;42.852;23.042;2022-12-07T10:15:42;8.35;;;6.78;;
20012;SDS011;10167;42.852;23.042;2022-12-07T10:18:19;5.15;;;2.58;;
20012;SDS011;10167;42.852;23.042;2022-12-07T10:21:02;1.85;;;1.75;;
20012;SDS011;10167;42.852;23.042;2022-12-07T10:23:40;2.53;;;2.33;;
20012;SDS011;10167;42.852;23.042;2022-12-07T10:26:21;2.63;;;2.42;;
20012;SDS011;10167;42.852;23.042;2022-12-07T10:28:58;2.10;;;1.65;;
20012;SDS011;10167;42.852;23.042;2022-12-07T10:31:30;3.53;;;2.05;;
20012;SDS011;10167;42.852;23.042;2022-12-07T10:33:59;2.08;;;1.77;;
20012;SDS011;10167;42.852;23.042;2022-12-07T10:36:36;4.55;;;2.65;;
20012;SDS011;10167;42.852;23.042;2022-12-07T10:39:11;4.50;;;3.05;;
20012;SDS011;10167;42.852;23.042;2022-12-07T10:41:56;5.50;;;2.97;;
20012;SDS011;10167;42.852;23.042;2022-12-07T10:44:27;5.00;;;2.40;;
20012;SDS011;10167;42.852;23.042;2022-12-07T10:47:08;7.95;;;3.00;;
20012;SDS011;10167;42.852;23.042;2022-12-07T10:53:03;4.82;;;2.55;;
20012;SDS011;10167;42.852;23.042;2022-12-07T10:55:51;4.63;;;3.05;;
20012;SDS011;10167;42.852;23.042;2022-12-07T10:58:43;5.38;;;3.03;;
20012;SDS011;10167;42.852;23.042;2022-12-07T11:01:27;4.50;;;3.33;;
20012;SDS011;10167;42.852;23.042;2022-12-07T11:04:12;3.40;;;2.92;;
20012;SDS011;10167;42.852;23.042;2022-12-07T11:06:51;3.35;;;3.05;;
20012;SDS011;10167;42.852;23.042;2022-12-07T11:09:36;3.83;;;2.17;;
20012;SDS011;10167;42.852;23.042;2022-12-07T11:12:40;17.40;;;2.35;;
20012;SDS011;10167;42.852;23.042;2022-12-07T11:15:28;4.55;;;2.25;;
20012;SDS011;10167;42.852;23.042;2022-12-07T11:18:09;3.08;;;1.73;;
20012;SDS011;10167;42.852;23.042;2022-12-07T11:20:44;2.58;;;1.45;;
20012;SDS011;10167;42.852;23.042;2022-12-07T11:23:24;5.60;;;3.35;;
20012;SDS011;10167;42.852;23.042;2022-12-07T11:26:11;1.33;;;1.27;;
20012;SDS011;10167;42.852;23.042;2022-12-07T11:28:50;1.63;;;1.52;;
20012;SDS011;10167;42.852;23.042;2022-12-07T11:31:33;1.02;;;1.02;;
20012;SDS011;10167;42.852;23.042;2022-12-07T11:34:13;3.35;;;1.48;;
20012;SDS011;10167;42.852;23.042;2022-12-07T11:36:52;4.60;;;2.58;;
20012;SDS011;10167;42.852;23.042;2022-12-07T11:39:25;3.67;;;1.75;;
20012;SDS011;10167;42.852;23.042;2022-12-07T11:42:04;2.53;;;1.85;;
20012;SDS011;10167;42.852;23.042;2022-12-07T11:44:39;2.85;;;2.40;;
20012;SDS011;10167;42.852;23.042;2022-12-07T11:47:16;3.88;;;2.90;;
20012;SDS011;10167;42.852;23.042;2022-12-07T11:49:52;1.60;;;1.52;;
20012;SDS011;10167;42.852;23.042;2022-12-07T11:52:26;3.45;;;2.10;;
20012;SDS011;10167;42.852;23.042;2022-12-07T11:55:00;7.00;;;4.28;;
20012;SDS011;10167;42.852;23.042;2022-12-07T11:57:38;2.83;;;2.53;;
20012;SDS011;10167;42.852;23.042;2022-12-07T12:02:43;3.28;;;2.38;;
20012;SDS011;10167;42.852;23.042;2022-12-07T12:05:21;2.58;;;2.38;;
20012;SDS011;10167;42.852;23.042;2022-12-07T12:07:52;1.92;;;1.60;;
20012;SDS011;10167;42.852;23.042;2022-12-07T12:10:52;3.60;;;3.33;;
20012;SDS011;10167;42.852;23.042;2022-12-07T12:13:43;1.73;;;1.63;;
20012;SDS011;10167;42.852;23.042;2022-12-07T12:20:00;3.13;;;2.22;;
20012;SDS011;10167;42.852;23.042;2022-12-07T12:22:35;1.90;;;1.70;;
20012;SDS011;10167;42.852;23.042;2022-12-07T12:25:21;6.70;;;2.42;;
20012;SDS011;10167;42.852;23.042;2022-12-07T12:27:54;3.40;;;2.90;;
20012;SDS011;10167;42.852;23.042;2022-12-07T12:30:41;1.67;;;1.58;;
20012;SDS011;10167;42.852;23.042;2022-12-07T12:33:13;5.15;;;2.17;;
20012;SDS011;10167;42.852;23.042;2022-12-07T12:41:57;9.38;;;3.67;;
20012;SDS011;10167;42.852;23.042;2022-12-07T12:44:41;4.35;;;2.42;;
20012;SDS011;10167;42.852;23.042;2022-12-07T12:47:43;2.38;;;2.15;;
20012;SDS011;10167;42.852;23.042;2022-12-07T12:50:24;1.05;;;1.00;;
20012;SDS011;10167;42.852;23.042;2022-12-07T12:53:02;1.77;;;1.67;;
20012;SDS011;10167;42.852;23.042;2022-12-07T12:55:46;4.60;;;2.75;;
20012;SDS011;10167;42.852;23.042;2022-12-07T12:58:36;2.03;;;1.85;;
20012;SDS011;10167;42.852;23.042;2022-12-07T13:04:27;3.03;;;2.40;;
20012;SDS011;10167;42.852;23.042;2022-12-07T13:07:49;6.80;;;4.32;;
20012;SDS011;10167;42.852;23.042;2022-12-07T13:10:34;1.67;;;1.58;;
20012;SDS011;10167;42.852;23.042;2022-12-07T13:25:30;1.65;;;1.55;;
20012;SDS011;10167;42.852;23.042;2022-12-07T13:28:16;4.22;;;2.80;;
20012;SDS011;10167;42.852;23.042;2022-12-07T13:30:51;6.32;;;1.55;;
20012;SDS011;10167;42.852;23.042;2022-12-07T13:33:42;2.00;;;1.88;;
20012;SDS011;10167;42.852;23.042;2022-12-07T13:36:16;5.68;;;2.78;;
20012;SDS011;10167;42.852;23.042;2022-12-07T13:38:50;5.32;;;2.97;;
20012;SDS011;10167;42.852;23.042;2022-12-07T13:41:23;7.50;;;2.50;;
20012;SDS011;10167;42.852;23.042;2022-12-07T13:43:55;2.80;;;1.48;;
20012;SDS011;10167;42.852;23.042;2022-12-07T13:46:33;5.45;;;2.08;;
20012;SDS011;10167;42.852;23.042;2022-12-07T13:49:16;16.83;;;1.55;;
20012;SDS011;10167;42.852;23.042;2022-12-07T13:51:48;1.92;;;1.60;;
20012;SDS011;10167;42.852;23.042;2022-12-07T13:54:20;1.13;;;1.05;;
20012;SDS011;10167;42.852;23.042;2022-12-07T13:56:50;4.70;;;3.63;;
20012;SDS011;10167;42.852;23.042;2022-12-07T13:59:21;3.60;;;2.03;;
20012;SDS011;10167;42.852;23.042;2022-12-07T14:01:52;3.78;;;2.03;;
20012;SDS011;10167;42.852;23.042;2022-12-07T14:04:30;2.67;;;2.40;;
20012;SDS011;10167;42.852;23.042;2022-12-07T14:07:18;2.28;;;2.17;;
20012;SDS011;10167;42.852;23.042;2022-12-07T14:12:54;7.22;;;2.72;;
20012;SDS011;10167;42.852;23.042;2022-12-07T14:15:28;4.88;;;2.47;;
20012;SDS011;10167;42.852;23.042;2022-12-07T14:17:58;13.45;;;2.97;;
20012;SDS011;10167;42.852;23.042;2022-12-07T14:20:32;2.08;;;1.40;;
20012;SDS011;10167;42.852;23.042;2022-12-07T14:23:23;5.22;;;3.15;;
20012;SDS011;10167;42.852;23.042;2022-12-07T14:26:04;6.22;;;3.47;;
20012;SDS011;10167;42.852;23.042;2022-12-07T14:28:36;2.58;;;2.38;;
20012;SDS011;10167;42.852;23.042;2022-12-07T14:31:09;3.78;;;2.70;;
20012;SDS011;10167;42.852;23.042;2022-12-07T14:33:51;6.18;;;3.38;;
20012;SDS011;10167;42.852;23.042;2022-12-07T14:36:20;8.70;;;3.83;;
20012;SDS011;10167;42.852;23.042;2022-12-07T14:38:49;5.40;;;2.75;;
20012;SDS011;10167;42.852;23.042;2022-12-07T14:41:22;5.05;;;4.28;;
20012;SDS011;10167;42.852;23.042;2022-12-07T14:44:10;8.48;;;2.95;;
20012;SDS011;10167;42.852;23.042;2022-12-07T14:46:51;5.53;;;3.47;;
20012;SDS011;10167;42.852;23.042;2022-12-07T14:49:40;4.22;;;3.33;;
20012;SDS011;10167;42.852;23.042;2022-12-07T14:52:11;21.80;;;5.40;;
20012;SDS011;10167;42.852;23.042;2022-12-07T14:55:03;7.40;;;6.25;;
20012;SDS011;10167;42.852;23.042;2022-12-07T14:57:35;8.25;;;5.80;;
20012;SDS011;10167;42.852;23.042;2022-12-07T15:00:05;6.53;;;5.30;;
20012;SDS011;10167;42.852;23.042;2022-12-07T15:02:36;7.60;;;4.72;;
20012;SDS011;10167;42.852;23.042;2022-12-07T15:05:05;21.63;;;6.45;;
20012;SDS011;10167;42.852;23.042;2022-12-07T15:07:42;8.38;;;6.43;;
20012;SDS011;10167;42.852;23.042;2022-12-07T15:10:13;13.48;;;7.85;;
20012;SDS011;10167;42.852;23.042;2022-12-07T15:12:51;10.65;;;4.40;;
20012;SDS011;10167;42.852;23.042;2022-12-07T15:15:21;8.05;;;6.20;;
20012;SDS011;10167;42.852;23.042;2022-12-07T15:18:02;10.25;;;5.28;;
20012;SDS011;10167;42.852;23.042;2022-12-07T15:20:32;13.75;;;7.10;;
20012;SDS011;10167;42.852;23.042;2022-12-07T15:23:01;24.95;;;6.30;;
20012;SDS011;10167;42.852;23.042;2022-12-07T15:25:31;6.82;;;5.75;;
20012;SDS011;10167;42.852;23.042;2022-12-07T15:28:02;19.35;;;9.32;;
20012;SDS011;10167;42.852;23.042;2022-12-07T15:30:32;8.38;;;7.47;;
20012;SDS011;10167;42.852;23.042;2022-12-07T15:33:02;21.80;;;11.68;;
20012;SDS011;10167;42.852;23.042;2022-12-07T15:35:31;24.02;;;11.00;;
20012;SDS011;10167;42.852;23.042;2022-12-07T15:38:02;20.60;;;10.45;;
20012;SDS011;10167;42.852;23.042;2022-12-07T15:43:03;16.52;;;10.88;;
20012;SDS011;10167;42.852;23.042;2022-12-07T15:45:54;13.13;;;8.68;;
20012;SDS011;10167;42.852;23.042;2022-12-07T15:48:22;19.15;;;11.32;;
20012;SDS011;10167;42.852;23.042;2022-12-07T15:51:04;44.85;;;17.45;;
20012;SDS011;10167;42.852;23.042;2022-12-07T15:53:35;29.08;;;18.13;;
20012;SDS011;10167;42.852;23.042;2022-12-07T15:56:05;15.43;;;10.75;;
20012;SDS011;10167;42.852;23.042;2022-12-07T15:58:37;23.75;;;13.65;;
20012;SDS011;10167;42.852;23.042;2022-12-07T16:01:10;39.78;;;17.05;;
20012;SDS011;10167;42.852;23.042;2022-12-07T16:03:40;13.52;;;11.52;;